createdAt,value
2023-04-18T20:02:26.539Z,36.18
2023-04-18T20:03:30.333Z,36.26
2023-04-18T20:04:34.463Z,36.24
2023-04-18T20:05:38.366Z,36.28
2023-04-18T20:06:42.131Z,36.16
2023-04-18T20:07:45.800Z,36.19
2023-04-18T20:08:49.535Z,36.23
2023-04-18T20:09:54.013Z,36.07
2023-04-18T20:10:57.696Z,36.12
2023-04-18T20:12:01.434Z,36.20
2023-04-18T20:13:05.008Z,36.28
2023-04-18T20:14:08.701Z,36.35
2023-04-18T20:15:13.162Z,36.39
2023-04-18T20:16:16.955Z,36.40
2023-04-18T20:17:20.803Z,36.22
2023-04-18T20:18:26.146Z,36.18
2023-04-18T20:19:29.970Z,36.08
2023-04-18T20:20:33.609Z,36.11
2023-04-18T20:21:37.211Z,35.84
2023-04-18T20:22:40.894Z,35.91
2023-04-18T20:23:44.598Z,36.04
2023-04-18T20:24:48.242Z,36.00
2023-04-18T20:25:51.900Z,35.93
2023-04-18T20:26:55.657Z,36.01
2023-04-18T20:27:59.276Z,35.96
2023-04-18T20:29:03.011Z,36.01
2023-04-18T20:30:07.774Z,36.15
2023-04-18T20:31:12.817Z,36.19
2023-04-18T20:32:16.588Z,36.19
2023-04-18T20:33:20.203Z,36.13
2023-04-18T20:34:25.584Z,36.07
2023-04-18T20:35:29.393Z,36.03
2023-04-18T20:36:33.130Z,36.13
2023-04-18T20:37:36.963Z,36.03
2023-04-18T20:38:40.722Z,36.13
2023-04-18T20:39:44.371Z,36.10
2023-04-18T20:40:48.489Z,36.19
2023-04-18T20:41:52.209Z,35.79
2023-04-18T20:42:56.384Z,36.01
2023-04-18T20:44:00.108Z,36.00
2023-04-18T20:45:03.854Z,35.84
2023-04-18T20:46:07.621Z,36.06
2023-04-18T20:47:12.374Z,36.04
2023-04-18T20:48:17.043Z,36.01
2023-04-18T20:49:20.808Z,36.16
2023-04-18T20:50:26.168Z,36.22
2023-04-18T20:51:29.808Z,36.23
2023-04-18T20:52:33.546Z,36.05
2023-04-18T20:53:37.209Z,36.26
2023-04-18T20:54:40.872Z,36.34
2023-04-18T20:55:44.611Z,36.40
2023-04-18T20:56:48.241Z,36.20
2023-04-18T20:57:51.933Z,36.24
2023-04-18T20:58:55.896Z,36.24
2023-04-18T20:59:59.521Z,36.34
2023-04-18T21:01:03.232Z,36.37
2023-04-18T21:02:08.933Z,36.27
2023-04-18T21:03:14.919Z,36.36
2023-04-18T21:04:19.376Z,36.41
2023-04-18T21:05:23.403Z,36.35
2023-04-18T21:06:28.787Z,36.15
2023-04-18T21:07:32.544Z,36.15
2023-04-18T21:08:36.217Z,36.14
2023-04-18T21:09:39.792Z,36.25
2023-04-18T21:10:43.612Z,36.28
2023-04-18T21:11:47.271Z,36.33
2023-04-18T21:12:50.998Z,36.40
2023-04-18T21:13:54.673Z,36.37
2023-04-18T21:14:58.326Z,36.46
2023-04-18T21:16:02.081Z,36.41
2023-04-18T21:17:05.809Z,36.35
2023-04-18T21:18:09.608Z,36.32
2023-04-18T21:19:13.447Z,36.37
2023-04-18T21:20:17.176Z,36.39
2023-04-18T21:21:20.923Z,36.34
2023-04-18T21:22:26.267Z,36.36
2023-04-18T21:23:29.962Z,36.39
2023-04-18T21:24:33.560Z,36.41
2023-04-18T21:25:37.246Z,36.24
2023-04-18T21:26:40.950Z,36.26
2023-04-18T21:27:44.639Z,36.20
2023-04-18T21:28:56.247Z,36.29
2023-04-18T21:30:00.412Z,36.37
2023-04-18T21:31:04.591Z,36.34
2023-04-18T21:32:08.375Z,36.14
2023-04-18T21:33:12.115Z,36.26
2023-04-18T21:34:16.011Z,36.34
2023-04-18T21:35:21.328Z,36.27
2023-04-18T21:36:28.113Z,35.91
2023-04-18T21:37:33.543Z,35.86
2023-04-18T21:38:37.201Z,35.76
2023-04-18T21:39:40.984Z,35.64
2023-04-18T21:40:44.642Z,36.00
2023-04-18T21:41:48.242Z,36.18
2023-04-18T21:42:52.047Z,36.26
2023-04-18T21:43:55.871Z,36.24
2023-04-18T21:44:59.616Z,36.18
2023-04-18T21:46:03.323Z,36.23
2023-04-18T21:47:07.086Z,36.16
2023-04-18T21:48:10.863Z,36.01
2023-04-18T21:49:14.520Z,36.11
2023-04-18T21:50:18.167Z,36.17
2023-04-18T21:51:21.860Z,36.09
2023-04-18T21:52:25.707Z,36.24
2023-04-18T21:53:31.038Z,36.26
2023-04-18T21:54:34.745Z,36.23
2023-04-18T21:55:38.427Z,36.28
2023-04-18T21:56:42.171Z,36.35
2023-04-18T21:57:45.808Z,36.25
2023-04-18T21:58:50.162Z,36.43
2023-04-18T21:59:53.872Z,36.41
2023-04-18T22:00:58.024Z,36.28
2023-04-18T22:02:01.731Z,36.36
2023-04-18T22:03:05.702Z,36.11
2023-04-18T22:04:09.656Z,36.11
2023-04-18T22:05:13.510Z,36.22
2023-04-18T22:06:17.501Z,36.18
2023-04-18T22:07:21.174Z,36.20
2023-04-18T22:08:25.107Z,36.24
2023-04-18T22:09:30.358Z,36.30
2023-04-18T22:10:34.121Z,36.34
2023-04-18T22:11:37.758Z,36.39
2023-04-18T22:12:41.375Z,36.37
2023-04-18T22:13:45.343Z,36.36
2023-04-18T22:14:49.021Z,36.30
2023-04-18T22:15:52.886Z,36.34
2023-04-18T22:16:56.623Z,36.19
2023-04-18T22:18:00.528Z,36.02
2023-04-18T22:19:04.280Z,36.06
2023-04-18T22:20:09.287Z,35.94
2023-04-18T22:21:12.935Z,35.99
2023-04-18T22:22:16.598Z,36.10
2023-04-18T22:23:20.290Z,36.17
2023-04-18T22:24:24.086Z,36.19
2023-04-18T22:25:29.383Z,36.14
2023-04-18T22:26:33.051Z,36.16
2023-04-18T22:27:36.650Z,36.22
2023-04-18T22:28:40.398Z,36.26
2023-04-18T22:29:44.134Z,36.34
2023-04-18T22:30:47.869Z,36.30
2023-04-18T22:31:51.596Z,36.34
2023-04-18T22:32:55.315Z,36.39
2023-04-18T22:33:59.015Z,36.28
2023-04-18T22:35:02.693Z,36.32
2023-04-18T22:36:06.987Z,36.32
2023-04-18T22:37:10.628Z,36.28
2023-04-18T22:38:14.295Z,36.36
2023-04-18T22:39:18.086Z,36.31
2023-04-18T22:40:22.015Z,36.40
2023-04-18T22:41:27.417Z,36.18
2023-04-18T22:42:32.131Z,36.30
2023-04-18T22:43:36.917Z,36.34
2023-04-18T22:44:40.623Z,36.22
2023-04-18T22:45:46.059Z,36.22
2023-04-18T22:46:49.892Z,36.16
2023-04-18T22:47:53.660Z,36.10
2023-04-18T22:48:57.386Z,36.15
2023-04-18T22:50:01.100Z,36.18
2023-04-18T22:51:04.879Z,36.23
2023-04-18T22:52:08.667Z,36.25
2023-04-18T22:53:12.699Z,36.31
2023-04-18T22:54:16.494Z,36.12
2023-04-18T22:55:20.306Z,36.03
2023-04-18T22:56:24.065Z,36.15
2023-04-18T22:57:29.686Z,36.21
2023-04-18T22:58:33.303Z,36.19
2023-04-18T22:59:37.037Z,36.24
2023-04-18T23:00:40.853Z,36.24
2023-04-18T23:01:44.738Z,36.13
2023-04-18T23:02:48.627Z,36.25
2023-04-18T23:03:53.193Z,36.19
2023-04-18T23:04:58.753Z,36.24
2023-04-18T23:06:22.567Z,36.27
2023-04-18T23:07:26.422Z,36.13
2023-04-18T23:08:30.669Z,36.27
2023-04-18T23:09:35.490Z,36.28
2023-04-18T23:10:42.813Z,36.35
2023-04-18T23:11:46.475Z,36.36
2023-04-18T23:12:53.259Z,36.34
2023-04-18T23:13:57.297Z,36.19
2023-04-18T23:15:01.028Z,36.29
2023-04-18T23:16:05.482Z,36.32
2023-04-18T23:17:09.349Z,36.21
2023-04-18T23:18:13.018Z,36.38
2023-04-18T23:19:16.605Z,36.40
2023-04-18T23:20:20.482Z,36.19
2023-04-18T23:21:24.186Z,36.39
2023-04-18T23:22:27.838Z,36.31
2023-04-18T23:23:31.462Z,36.33
2023-04-18T23:24:35.098Z,36.39
2023-04-18T23:25:38.724Z,36.25
2023-04-18T23:26:42.546Z,36.04
2023-04-18T23:27:46.194Z,36.19
2023-04-18T23:28:51.568Z,36.13
2023-04-18T23:29:55.327Z,36.23
2023-04-18T23:30:59.181Z,36.08
2023-04-18T23:32:02.829Z,35.98
2023-04-18T23:33:06.634Z,35.83
2023-04-18T23:34:11.049Z,35.81
2023-04-18T23:35:14.689Z,35.93
2023-04-18T23:36:18.447Z,36.03
2023-04-18T23:37:22.141Z,36.08
2023-04-18T23:38:25.986Z,36.15
2023-04-18T23:39:29.613Z,36.15
2023-04-18T23:40:33.304Z,36.19
2023-04-18T23:41:37.064Z,36.27
2023-04-18T23:42:40.750Z,36.23
2023-04-18T23:43:44.550Z,36.32
2023-04-18T23:44:50.009Z,36.29
2023-04-18T23:45:53.626Z,36.30
2023-04-18T23:46:57.386Z,36.28
2023-04-18T23:48:01.098Z,36.28
2023-04-18T23:49:04.806Z,36.35
2023-04-18T23:50:09.913Z,36.42
2023-04-18T23:51:13.587Z,36.43
2023-04-18T23:52:17.352Z,36.27
2023-04-18T23:53:21.816Z,36.43
2023-04-18T23:54:27.744Z,36.42
2023-04-18T23:55:31.440Z,36.53
2023-04-18T23:56:35.666Z,36.54
2023-04-18T23:57:39.335Z,36.57
2023-04-18T23:58:43.072Z,36.57
2023-04-18T23:59:48.376Z,36.59
